Time;durP1;ratioP1;P1;durP2;ratioP2;P2;SDS_P1;SDS_P2;PMS_P1;PMS_P2;Temp;Humidity;BMP_temperature;BMP_pressure;BME280_temperature;BME280_humidity;BME280_pressure;Samples;Min_cycle;Max_cycle;Signal;HPM_P1;HPM_P2
2024/02/16 00:00:46;;;;;;;;;;;;;;;15.55;47.25;101389.34;5034622;28;1234;-56
2024/02/16 00:03:12;;;;;;;;;;;;;;;15.70;46.96;101395.03;5037705;28;1155;-55
2024/02/16 00:05:37;;;;;;;;;;;;;;;17.19;43.31;101378.59;5037440;28;1906;-55
2024/02/16 00:08:03;;;;;;;;;;;;;;;16.62;44.64;101386.31;5037446;28;1135;-55
2024/02/16 00:10:29;;;;;;;;;;;;;;;16.07;45.95;101385.41;5032721;28;1125;-57
2024/02/16 00:12:54;;;;;;;;;;;;;;;15.78;46.39;101391.06;5029183;28;1143;-56
2024/02/16 00:15:20;;;;;;;;;;;;;;;15.53;47.26;101380.56;5036983;28;1075;-56
2024/02/16 00:17:45;;;;;;;;;;;;;;;15.85;46.61;101388.97;5037376;28;1028;-55
2024/02/16 00:20:14;;;;;;;;;;;;;;;17.26;43.36;101384.69;5032717;28;1203;-56
2024/02/16 00:22:39;;;;;;;;;;;;;;;16.63;44.34;101384.41;5029137;28;1242;-55
2024/02/16 00:25:05;;;;;;;;;;;;;;;16.05;45.95;101380.19;5036800;28;1910;-56
2024/02/16 00:27:31;;;;;;;;;;;;;;;15.72;46.90;101381.06;5036556;28;1095;-57
2024/02/16 00:29:57;;;;;;;;;;;;;;;15.56;47.24;101382.78;5037147;28;1067;-56
2024/02/16 00:32:24;;;;;;;;;;;;;;;15.60;47.05;101386.69;5037131;28;1052;-59
2024/02/16 00:34:52;;;;;;;;;;;;;;;17.10;43.52;101379.09;5037028;28;1071;-56
2024/02/16 00:37:17;;;;;;;;;;;;;;;17.36;42.97;101370.19;5037027;28;1075;-56
2024/02/16 00:39:43;;;;;;;;;;;;;;;16.33;45.16;101374.75;5036521;28;1142;-56
2024/02/16 00:42:08;;;;;;;;;;;;;;;15.97;46.05;101371.56;5037105;28;1068;-56
2024/02/16 00:44:34;;;;;;;;;;;;;;;15.73;46.55;101375.34;5018574;28;1906;-56
2024/02/16 00:47:00;;;;;;;;;;;;;;;15.56;47.06;101377.31;5028855;28;1130;-56
2024/02/16 00:49:25;;;;;;;;;;;;;;;16.29;45.59;101371.69;5036556;28;1044;-56
2024/02/16 00:51:51;;;;;;;;;;;;;;;17.47;42.82;101368.34;5036684;28;1154;-48
2024/02/16 00:54:17;;;;;;;;;;;;;;;16.57;44.73;101364.28;5036375;28;1218;-46
2024/02/16 00:56:42;;;;;;;;;;;;;;;16.08;45.73;101368.69;5036641;28;1146;-48
2024/02/16 00:59:09;;;;;;;;;;;;;;;15.73;46.58;101375.34;5036521;28;1082;-49
2024/02/16 01:01:35;;;;;;;;;;;;;;;15.64;46.76;101368.66;5036967;28;1154;-47
2024/02/16 01:04:01;;;;;;;;;;;;;;;15.42;47.63;101370.50;5022867;28;1910;-48
2024/02/16 01:06:27;;;;;;;;;;;;;;;16.91;44.24;101370.44;5036477;28;1145;-48
2024/02/16 01:08:53;;;;;;;;;;;;;;;17.04;43.46;101369.16;5035987;28;1106;-49
2024/02/16 01:11:19;;;;;;;;;;;;;;;16.23;45.60;101367.22;5036192;28;1051;-47
2024/02/16 01:13:47;;;;;;;;;;;;;;;15.84;46.54;101378.28;5036620;28;1126;-47
2024/02/16 01:16:13;;;;;;;;;;;;;;;15.61;46.93;101368.31;5036387;28;1051;-46
2024/02/16 01:18:39;;;;;;;;;;;;;;;15.42;47.26;101373.22;5036386;28;1110;-49
2024/02/16 01:21:05;;;;;;;;;;;;;;;16.72;44.53;101369.13;5037141;28;1127;-49
2024/02/16 01:23:30;;;;;;;;;;;;;;;17.50;42.54;101365.06;5023183;28;1102;-47
2024/02/16 01:25:56;;;;;;;;;;;;;;;16.45;44.84;101371.84;5036242;28;1909;-47
2024/02/16 01:28:22;;;;;;;;;;;;;;;15.98;46.03;101365.81;5035873;28;1302;-48
2024/02/16 01:30:48;;;;;;;;;;;;;;;15.71;46.60;101369.28;5036687;28;1144;-51
2024/02/16 01:33:14;;;;;;;;;;;;;;;15.56;47.05;101371.81;5032996;28;1269;-52
2024/02/16 01:35:40;;;;;;;;;;;;;;;15.80;46.61;101377.13;5034863;28;1623;-50
2024/02/16 01:38:05;;;;;;;;;;;;;;;17.25;43.15;101359.16;5036037;28;1063;-47
2024/02/16 01:40:31;;;;;;;;;;;;;;;16.85;44.08;101367.84;5035905;28;1060;-49
2024/02/16 01:42:57;;;;;;;;;;;;;;;16.17;45.34;101360.84;5036103;28;1143;-46
2024/02/16 01:45:23;;;;;;;;;;;;;;;15.87;46.43;101375.00;5036094;28;1975;-46
2024/02/16 01:47:49;;;;;;;;;;;;;;;15.64;47.03;101368.66;5036260;28;1115;-47
2024/02/16 01:50:15;;;;;;;;;;;;;;;15.43;47.63;101363.94;5035887;28;1151;-48
2024/02/16 01:52:42;;;;;;;;;;;;;;;16.82;44.45;101360.16;5035130;28;1346;-49
2024/02/16 01:55:10;;;;;;;;;;;;;;;17.43;42.59;101359.78;5029095;28;1545;-47
2024/02/16 01:57:36;;;;;;;;;;;;;;;16.32;45.37;101368.41;5036128;28;1225;-50
2024/02/16 02:00:03;;;;;;;;;;;;;;;15.97;46.16;101372.41;5026485;28;1005;-49
2024/02/16 02:02:30;;;;;;;;;;;;;;;15.71;46.72;101379.41;5035839;28;1071;-51
2024/02/16 02:04:56;;;;;;;;;;;;;;;15.50;47.34;101375.56;5035835;28;1971;-50
2024/02/16 02:07:24;;;;;;;;;;;;;;;16.72;44.57;101374.59;5036040;28;1067;-47
2024/02/16 02:09:50;;;;;;;;;;;;;;;17.37;42.69;101372.69;5035780;28;1071;-48
2024/02/16 02:12:16;;;;;;;;;;;;;;;16.35;45.22;101375.31;5035333;28;1020;-51
2024/02/16 02:14:41;;;;;;;;;;;;;;;15.91;46.00;101376.97;5023587;28;1106;-51
2024/02/16 02:17:07;;;;;;;;;;;;;;;15.68;46.70;101369.81;5034489;28;1067;-53
2024/02/16 02:19:33;;;;;;;;;;;;;;;15.52;47.01;101376.97;5036020;28;1095;-49
2024/02/16 02:21:58;;;;;;;;;;;;;;;16.75;44.35;101366.66;5016833;28;1122;-48
2024/02/16 02:24:24;;;;;;;;;;;;;;;17.40;42.80;101371.34;5030508;28;1968;-47
2024/02/16 02:26:50;;;;;;;;;;;;;;;16.39;45.01;101377.28;5033529;28;1092;-51
2024/02/16 02:29:15;;;;;;;;;;;;;;;15.96;45.97;101376.22;5028534;28;1060;-48
2024/02/16 02:31:41;;;;;;;;;;;;;;;15.72;46.50;101378.34;5038777;28;1107;-50
2024/02/16 02:34:06;;;;;;;;;;;;;;;15.51;47.12;101386.25;5026826;28;1099;-48
2024/02/16 02:36:35;;;;;;;;;;;;;;;16.13;45.81;101380.81;5038668;28;1075;-50
2024/02/16 02:39:01;;;;;;;;;;;;;;;17.43;42.98;101382.63;5039440;28;1087;-47
2024/02/16 02:41:26;;;;;;;;;;;;;;;16.63;44.65;101382.47;5038879;28;1127;-50
2024/02/16 02:43:52;;;;;;;;;;;;;;;16.11;45.78;101377.50;5039323;28;1975;-49
2024/02/16 02:46:17;;;;;;;;;;;;;;;15.78;46.69;101391.06;5039003;28;1104;-46
2024/02/16 02:48:43;;;;;;;;;;;;;;;15.53;46.94;101391.53;5039301;28;1130;-47
2024/02/16 02:51:09;;;;;;;;;;;;;;;15.53;47.26;101383.28;5039072;28;1213;-50
2024/02/16 02:53:35;;;;;;;;;;;;;;;17.06;43.78;101385.38;5038450;28;1167;-46
2024/02/16 02:56:00;;;;;;;;;;;;;;;17.18;42.98;101386.03;5039400;28;1170;-49
2024/02/16 02:58:26;;;;;;;;;;;;;;;16.29;45.24;101385.41;5039407;28;1092;-49
2024/02/16 03:00:51;;;;;;;;;;;;;;;15.89;46.39;101392.03;5025686;28;1214;-52
2024/02/16 03:03:17;;;;;;;;;;;;;;;15.69;46.76;101396.13;5038632;28;1035;-51
2024/02/16 03:05:43;;;;;;;;;;;;;;;15.45;47.43;101387.28;5038556;28;1921;-50
2024/02/16 03:08:10;;;;;;;;;;;;;;;16.40;45.07;101391.84;5038898;28;1211;-49
2024/02/16 03:10:36;;;;;;;;;;;;;;;17.51;42.44;101392.31;5038492;28;1071;-47
2024/02/16 03:13:02;;;;;;;;;;;;;;;16.50;44.60;101391.13;5038185;28;1138;-48
2024/02/16 03:15:29;;;;;;;;;;;;;;;16.00;45.81;101404.78;5038356;28;1159;-46
2024/02/16 03:17:55;;;;;;;;;;;;;;;15.72;46.49;101403.00;5038486;28;1127;-46
2024/02/16 03:20:21;;;;;;;;;;;;;;;15.50;47.04;101400.22;5038977;28;1108;-49
2024/02/16 03:22:46;;;;;;;;;;;;;;;16.37;45.17;101404.16;5038116;28;1055;-49
2024/02/16 03:25:12;;;;;;;;;;;;;;;17.50;42.51;101406.31;5038203;28;1910;-45
2024/02/16 03:27:38;;;;;;;;;;;;;;;16.55;44.73;101404.88;5038569;28;1056;-50
2024/02/16 03:30:04;;;;;;;;;;;;;;;15.97;46.01;101405.31;5037769;28;1098;-48
2024/02/16 03:32:31;;;;;;;;;;;;;;;15.73;46.52;101408.25;5038428;28;1067;-49
2024/02/16 03:34:56;;;;;;;;;;;;;;;15.53;47.11;101399.75;5037743;28;1055;-48
2024/02/16 03:37:22;;;;;;;;;;;;;;;16.45;45.13;101407.53;5037946;28;1133;-47
2024/02/16 03:39:48;;;;;;;;;;;;;;;17.54;42.38;101399.19;5038180;28;1126;-49
2024/02/16 03:42:13;;;;;;;;;;;;;;;16.53;44.72;101405.16;5037927;28;877;-47
2024/02/16 03:44:39;;;;;;;;;;;;;;;16.01;46.08;101403.72;5037627;28;1910;-47
2024/02/16 03:47:04;;;;;;;;;;;;;;;15.77;46.52;101410.47;5037952;28;1141;-50
2024/02/16 03:49:30;;;;;;;;;;;;;;;15.53;47.10;101405.22;5038050;28;1095;-51
2024/02/16 03:51:55;;;;;;;;;;;;;;;15.48;47.20;101405.97;5038103;28;1118;-49
2024/02/16 03:54:21;;;;;;;;;;;;;;;17.01;43.80;101407.31;5037104;28;1075;-50
2024/02/16 03:56:48;;;;;;;;;;;;;;;17.06;43.54;101408.19;5037729;28;1099;-47
2024/02/16 03:59:14;;;;;;;;;;;;;;;16.20;45.58;101414.38;5035251;28;1349;-49
2024/02/16 04:01:41;;;;;;;;;;;;;;;15.92;46.27;101424.44;5036937;28;1145;-51
2024/02/16 04:04:07;;;;;;;;;;;;;;;15.60;46.78;101422.31;5037236;28;1905;-56
2024/02/16 04:06:32;;;;;;;;;;;;;;;15.43;47.30;101421.50;5037582;28;967;-56
2024/02/16 04:08:58;;;;;;;;;;;;;;;16.41;45.18;101426.41;5031872;28;1086;-58
2024/02/16 04:11:23;;;;;;;;;;;;;;;17.51;42.50;101418.97;5029078;28;1349;-53
2024/02/16 04:13:49;;;;;;;;;;;;;;;16.49;44.87;101416.91;5036825;28;1086;-56
2024/02/16 04:16:15;;;;;;;;;;;;;;;16.00;46.00;101426.75;5037578;28;992;-56
2024/02/16 04:18:40;;;;;;;;;;;;;;;15.80;46.63;101421.00;5034797;28;1052;-56
2024/02/16 04:21:06;;;;;;;;;;;;;;;15.51;47.24;101434.78;5026408;28;1187;-57
2024/02/16 04:23:32;;;;;;;;;;;;;;;15.60;47.20;101416.84;5037283;28;1075;-58
2024/02/16 04:25:58;;;;;;;;;;;;;;;17.09;43.55;101432.38;5036183;28;1985;-56
2024/02/16 04:28:24;;;;;;;;;;;;;;;17.20;42.89;101429.75;5036891;28;1051;-59
2024/02/16 04:30:49;;;;;;;;;;;;;;;16.26;45.33;101432.56;5033628;28;1590;-57
2024/02/16 04:33:15;;;;;;;;;;;;;;;15.90;46.08;101435.66;5032527;28;1083;-61
2024/02/16 04:35:41;;;;;;;;;;;;;;;15.66;46.81;101426.78;5037109;28;1123;-59
2024/02/16 04:38:06;;;;;;;;;;;;;;;15.46;47.16;101437.44;5036386;28;1175;-58
2024/02/16 04:40:34;;;;;;;;;;;;;;;16.47;45.08;101447.38;5036659;28;1144;-58
2024/02/16 04:42:59;;;;;;;;;;;;;;;17.51;42.55;101438.22;5035815;28;1514;-56
2024/02/16 04:45:27;;;;;;;;;;;;;;;16.49;44.63;101445.19;5036577;28;1902;-57
2024/02/16 04:47:52;;;;;;;;;;;;;;;16.02;46.14;101448.44;5036600;28;1123;-58
2024/02/16 04:50:18;;;;;;;;;;;;;;;15.68;46.68;101438.34;5036808;28;1131;-56
2024/02/16 04:52:43;;;;;;;;;;;;;;;15.46;47.22;101442.91;5036674;28;1078;-56
2024/02/16 04:55:09;;;;;;;;;;;;;;;15.71;46.88;101458.94;5035582;28;1238;-53
2024/02/16 04:57:35;;;;;;;;;;;;;;;17.17;43.67;101452.25;5037140;28;1129;-59
2024/02/16 05:00:00;;;;;;;;;;;;;;;16.65;44.38;101453.59;5037160;28;1047;-56
2024/02/16 05:02:26;;;;;;;;;;;;;;;15.96;46.11;101461.25;5031596;28;1130;-56
2024/02/16 05:04:51;;;;;;;;;;;;;;;15.64;47.07;101467.34;5028406;28;1906;-56
2024/02/16 05:07:19;;;;;;;;;;;;;;;15.43;47.45;101476.31;5030888;28;1143;-58
2024/02/16 05:09:45;;;;;;;;;;;;;;;15.54;47.41;101473.50;5028066;28;1111;-55
2024/02/16 05:12:10;;;;;;;;;;;;;;;17.10;43.66;101472.50;5022975;28;1071;-57
2024/02/16 05:14:36;;;;;;;;;;;;;;;16.80;44.08;101483.16;5036219;28;1043;-56
2024/02/16 05:17:01;;;;;;;;;;;;;;;17.60;42.55;101481.47;5026157;28;1276;-55
2024/02/16 05:19:27;;;;;;;;;;;;;;;16.56;44.77;101480.69;5036112;28;1118;-55
2024/02/16 05:21:53;;;;;;;;;;;;;;;17.45;42.77;101482.16;5033723;28;1083;-57
2024/02/16 05:24:18;;;;;;;;;;;;;;;17.99;41.53;101479.56;5036213;28;1993;-56
2024/02/16 05:26:45;;;;;;;;;;;;;;;16.61;44.39;101483.50;5021924;28;1130;-57
2024/02/16 05:29:10;;;;;;;;;;;;;;;17.77;42.42;101492.31;5035183;28;1054;-56
2024/02/16 05:31:36;;;;;;;;;;;;;;;17.18;43.58;101484.97;5033881;28;1272;-53
2024/02/16 05:34:02;;;;;;;;;;;;;;;16.42;45.12;101494.81;5035944;28;1422;-56
2024/02/16 05:36:30;;;;;;;;;;;;;;;17.73;42.61;101507.69;5035769;28;1419;-51
2024/02/16 05:38:56;;;;;;;;;;;;;;;16.73;44.42;101503.44;5027269;28;1422;-55
2024/02/16 05:41:22;;;;;;;;;;;;;;;16.21;45.54;101498.34;5033002;28;1431;-54
2024/02/16 05:43:48;;;;;;;;;;;;;;;17.41;43.33;101497.53;5035473;28;1134;-54
2024/02/16 05:46:14;;;;;;;;;;;;;;;17.84;42.28;101502.25;5035572;28;1914;-56
2024/02/16 05:48:40;;;;;;;;;;;;;;;16.65;44.67;101506.63;5035410;28;1135;-54
2024/02/16 05:51:06;;;;;;;;;;;;;;;17.62;43.15;101516.97;5034421;28;1028;-57
2024/02/16 05:53:34;;;;;;;;;;;;;;;17.15;43.51;101512.13;5035650;28;1171;-57
2024/02/16 05:56:00;;;;;;;;;;;;;;;16.76;44.88;101507.56;5035240;28;1071;-58
2024/02/16 05:58:26;;;;;;;;;;;;;;;18.39;40.95;101511.97;5037940;28;1080;-56
2024/02/16 06:00:51;;;;;;;;;;;;;;;16.98;43.91;101510.31;5037219;28;1114;-57
2024/02/16 06:03:17;;;;;;;;;;;;;;;16.49;45.02;101524.81;5039261;28;1289;-58
2024/02/16 06:05:45;;;;;;;;;;;;;;;16.26;45.02;101525.88;5025040;28;1987;-59
2024/02/16 06:08:11;;;;;;;;;;;;;;;17.94;42.41;101521.63;5038939;28;1218;-58
2024/02/16 06:10:37;;;;;;;;;;;;;;;16.93;44.52;101521.25;5022413;28;1380;-59
2024/02/16 06:13:02;;;;;;;;;;;;;;;16.39;45.24;101525.50;5020736;28;1489;-56
2024/02/16 06:15:28;;;;;;;;;;;;;;;17.72;42.86;101525.28;5038669;28;1134;-58
2024/02/16 06:17:53;;;;;;;;;;;;;;;17.10;44.23;101535.72;5038948;28;1060;-59
2024/02/16 06:20:19;;;;;;;;;;;;;;;16.47;45.20;101528.91;5038365;28;1280;-59
2024/02/16 06:22:45;;;;;;;;;;;;;;;18.12;41.98;101537.72;5038903;28;1133;-59
2024/02/16 06:25:10;;;;;;;;;;;;;;;16.83;44.60;101532.06;5039063;28;2009;-60
2024/02/16 06:27:36;;;;;;;;;;;;;;;16.39;45.15;101533.72;5039206;28;1146;-60
2024/02/16 06:30:05;;;;;;;;;;;;;;;18.06;42.10;101529.69;5038288;28;1133;-58
2024/02/16 06:32:31;;;;;;;;;;;;;;;16.80;44.63;101535.34;5021320;28;1265;-59
2024/02/16 06:34:57;;;;;;;;;;;;;;;17.02;44.47;101533.44;5022378;28;1395;-60
2024/02/16 06:37:22;;;;;;;;;;;;;;;17.90;42.17;101529.53;5022528;28;1419;-60
2024/02/16 06:39:48;;;;;;;;;;;;;;;16.76;44.54;101527.63;5030224;28;1372;-60
2024/02/16 06:42:13;;;;;;;;;;;;;;;18.24;41.91;101532.03;5022763;28;1360;-60
2024/02/16 06:44:39;;;;;;;;;;;;;;;17.35;43.44;101528.81;5038209;28;1917;-59
2024/02/16 06:47:05;;;;;;;;;;;;;;;16.72;44.71;101536.63;5026384;28;1139;-58
2024/02/16 06:49:31;;;;;;;;;;;;;;;16.49;44.87;101532.22;5027761;28;1370;-57
2024/02/16 06:51:56;;;;;;;;;;;;;;;17.67;42.99;101541.75;5031561;28;1008;-58
2024/02/16 06:54:22;;;;;;;;;;;;;;;17.06;44.43;101536.50;5020041;28;1108;-57
2024/02/16 06:56:47;;;;;;;;;;;;;;;16.55;45.12;101543.03;5032349;28;1067;-58
2024/02/16 06:59:13;;;;;;;;;;;;;;;17.83;42.83;101539.13;5031752;28;1139;-58
2024/02/16 07:01:39;;;;;;;;;;;;;;;16.96;44.60;101533.63;5033623;28;1059;-57
2024/02/16 07:04:05;;;;;;;;;;;;;;;16.50;45.64;101548.44;5038406;28;1980;-58
2024/02/16 07:06:31;;;;;;;;;;;;;;;17.80;42.69;101543.22;5027649;28;1139;-58
2024/02/16 07:08:56;;;;;;;;;;;;;;;16.74;44.66;101551.75;5037695;28;1155;-58
2024/02/16 07:11:22;;;;;;;;;;;;;;;16.30;45.38;101551.72;5037418;28;1222;-59
2024/02/16 07:13:47;;;;;;;;;;;;;;;16.83;44.92;101554.91;5025153;28;1206;-57
2024/02/16 07:16:13;;;;;;;;;;;;;;;18.03;42.23;101553.06;5037468;28;1052;-59
2024/02/16 07:18:39;;;;;;;;;;;;;;;16.87;44.56;101560.69;5034234;28;1008;-58
2024/02/16 07:21:05;;;;;;;;;;;;;;;17.50;43.72;101560.28;5037400;28;1538;-59
2024/02/16 07:23:30;;;;;;;;;;;;;;;17.57;43.23;101552.66;5038128;28;1194;-58
2024/02/16 07:25:56;;;;;;;;;;;;;;;16.73;45.00;101560.25;5037362;28;1910;-57
2024/02/16 07:28:24;;;;;;;;;;;;;;;17.27;44.14;101559.53;5020120;28;1032;-56
2024/02/16 07:30:51;;;;;;;;;;;;;;;17.18;44.01;101553.69;5028762;28;1017;-57
2024/02/16 07:33:16;;;;;;;;;;;;;;;16.49;45.41;101565.16;5033111;28;1175;-58
2024/02/16 07:35:42;;;;;;;;;;;;;;;18.19;41.96;101551.25;5033095;28;1183;-57
2024/02/16 07:38:07;;;;;;;;;;;;;;;16.85;44.81;101563.69;5038084;28;1078;-57
2024/02/16 07:40:33;;;;;;;;;;;;;;;16.44;45.36;101549.47;5035335;28;1001;-58
2024/02/16 07:42:59;;;;;;;;;;;;;;;16.60;45.29;101561.47;5036677;28;1344;-59
2024/02/16 07:45:24;;;;;;;;;;;;;;;18.15;42.12;101561.13;5037232;28;1977;-55
2024/02/16 07:47:50;;;;;;;;;;;;;;;16.87;44.54;101558.78;5037355;28;1068;-58
2024/02/16 07:50:20;;;;;;;;;;;;;;;16.46;45.26;101560.19;5036680;28;1063;-58
2024/02/16 07:52:45;;;;;;;;;;;;;;;17.36;44.22;101563.47;5036918;28;1027;-58
2024/02/16 07:55:11;;;;;;;;;;;;;;;17.22;44.02;101567.72;5036609;28;1105;-58
2024/02/16 07:57:37;;;;;;;;;;;;;;;16.57;45.15;101575.72;5037515;28;1104;-62
2024/02/16 08:00:03;;;;;;;;;;;;;;;18.10;42.29;101572.94;5036946;28;1143;-61
2024/02/16 08:02:30;;;;;;;;;;;;;;;16.92;44.74;101574.53;5027759;28;2255;-58
2024/02/16 08:04:55;;;;;;;;;;;;;;;16.47;45.39;101576.41;5036535;28;1906;-58
2024/02/16 08:07:21;;;;;;;;;;;;;;;17.64;43.41;101577.19;5035653;28;1059;-58
2024/02/16 08:09:47;;;;;;;;;;;;;;;17.16;44.30;101569.56;5035155;28;964;-58
2024/02/16 08:12:13;;;;;;;;;;;;;;;16.62;45.18;101570.28;5034894;28;1063;-58
2024/02/16 08:14:39;;;;;;;;;;;;;;;16.48;45.58;101579.97;5033072;28;1289;-58
2024/02/16 08:17:05;;;;;;;;;;;;;;;18.08;42.19;101580.63;5036409;28;1158;-58
2024/02/16 08:19:31;;;;;;;;;;;;;;;16.77;45.04;101578.72;5023339;28;1113;-58
2024/02/16 08:21:57;;;;;;;;;;;;;;;16.43;45.20;101584.28;5035242;28;984;-58
2024/02/16 08:24:23;;;;;;;;;;;;;;;17.81;42.99;101575.16;5036670;28;1975;-58
2024/02/16 08:26:48;;;;;;;;;;;;;;;17.17;44.31;101584.16;5036794;28;1011;-58
2024/02/16 08:29:14;;;;;;;;;;;;;;;16.71;45.36;101582.47;5036548;28;1322;-58
2024/02/16 08:31:39;;;;;;;;;;;;;;;18.09;42.18;101574.03;5034068;28;1198;-57
2024/02/16 08:34:07;;;;;;;;;;;;;;;16.90;44.67;101585.78;5025296;28;2051;-58
2024/02/16 08:36:33;;;;;;;;;;;;;;;16.75;45.37;101580.88;5029767;28;1004;-56
2024/02/16 08:38:59;;;;;;;;;;;;;;;17.77;42.86;101585.03;5023732;28;1077;-57
2024/02/16 08:41:25;;;;;;;;;;;;;;;16.70;45.03;101589.03;5030423;28;1364;-55
2024/02/16 08:43:50;;;;;;;;;;;;;;;16.41;45.47;101597.47;5031013;28;1162;-58
2024/02/16 08:46:16;;;;;;;;;;;;;;;17.73;43.34;101590.22;5036144;28;1906;-59
2024/02/16 08:48:41;;;;;;;;;;;;;;;17.57;43.42;101591.16;5030564;28;1426;-60
2024/02/16 08:51:07;;;;;;;;;;;;;;;16.77;44.95;101595.22;5067290;28;1555;-59
2024/02/16 08:53:32;;;;;;;;;;;;;;;16.75;45.54;101588.31;5025073;28;1450;-60
2024/02/16 08:55:58;;;;;;;;;;;;;;;18.38;41.58;101592.09;5035630;28;1105;-59
2024/02/16 08:58:24;;;;;;;;;;;;;;;17.08;44.60;101605.75;5034492;28;1107;-60
2024/02/16 09:00:49;;;;;;;;;;;;;;;18.22;42.27;101604.94;5029823;28;1348;-59
2024/02/16 09:03:16;;;;;;;;;;;;;;;17.89;42.78;101599.44;5026899;28;2151;-61
2024/02/16 09:05:43;;;;;;;;;;;;;;;17.03;44.37;101613.97;5033877;28;1972;-58
2024/02/16 09:08:09;;;;;;;;;;;;;;;17.04;44.71;101613.69;5033735;28;1082;-57
2024/02/16 09:10:35;;;;;;;;;;;;;;;18.22;42.08;101614.03;5027437;28;1248;-56
2024/02/16 09:13:00;;;;;;;;;;;;;;;17.20;44.17;101616.63;5029443;28;1423;-50
2024/02/16 09:15:26;;;;;;;;;;;;;;;17.56;43.86;101604.09;5021806;28;1502;-55
2024/02/16 09:17:53;;;;;;;;;;;;;;;17.71;42.88;101611.66;5018783;28;1376;-56
2024/02/16 09:20:22;;;;;;;;;;;;;;;16.99;44.58;101613.63;5022922;28;1454;-56
2024/02/16 09:22:48;;;;;;;;;;;;;;;16.58;45.36;101608.41;5024935;28;1426;-57
2024/02/16 09:25:14;;;;;;;;;;;;;;;18.40;41.75;101609.19;5035453;28;1989;-57
2024/02/16 09:27:41;;;;;;;;;;;;;;;17.14;44.47;101614.88;5026366;28;1339;-61
2024/02/16 09:30:07;;;;;;;;;;;;;;;16.66;45.32;101609.91;5031727;28;1333;-59
2024/02/16 09:32:33;;;;;;;;;;;;;;;18.06;42.63;101615.84;5066368;28;2196;-58
2024/02/16 09:34:58;;;;;;;;;;;;;;;17.37;43.93;101617.34;5032476;28;1484;-59
2024/02/16 09:37:24;;;;;;;;;;;;;;;16.70;45.30;101615.69;5035928;28;993;-59
2024/02/16 09:39:49;;;;;;;;;;;;;;;16.61;45.06;101604.31;5028674;28;1131;-59
2024/02/16 09:42:16;;;;;;;;;;;;;;;16.42;44.71;101612.00;5035161;28;1077;-58
2024/02/16 09:44:41;;;;;;;;;;;;;;;17.79;43.24;101613.94;5037509;28;2087;-60
2024/02/16 09:47:10;;;;;;;;;;;;;;;16.94;45.05;101605.31;5036780;28;1015;-59
2024/02/16 09:49:36;;;;;;;;;;;;;;;17.30;44.49;101613.16;5037211;28;1040;-59
2024/02/16 09:52:03;;;;;;;;;;;;;;;17.97;42.52;101606.41;5035602;28;1024;-56
2024/02/16 09:54:29;;;;;;;;;;;;;;;16.89;45.04;101616.25;5030176;28;1084;-59
2024/02/16 09:56:56;;;;;;;;;;;;;;;18.15;42.54;101618.13;5071070;28;1087;-60
2024/02/16 09:59:22;;;;;;;;;;;;;;;17.26;44.11;101619.19;5039298;28;1047;-59
2024/02/16 10:01:47;;;;;;;;;;;;;;;17.19;44.60;101623.19;5034938;28;1095;-60
2024/02/16 10:04:13;;;;;;;;;;;;;;;18.35;41.73;101609.16;5029632;28;2100;-60
2024/02/16 10:06:48;;;;;;;;;;;;;;;17.22;44.13;101618.03;5019559;28;1254;-60
2024/02/16 10:09:22;;;;;;;;;;;;;;;17.78;43.36;101612.28;5024202;28;904;-58
2024/02/16 10:11:47;;;;;;;;;;;;;;;17.49;43.49;101613.63;5019505;28;1071;-58
2024/02/16 10:14:13;;;;;;;;;;;;;;;16.92;44.93;101613.81;5028270;28;1119;-58
2024/02/16 10:16:38;;;;;;;;;;;;;;;18.34;41.74;101604.75;5039076;28;1059;-58
2024/02/16 10:19:05;;;;;;;;;;;;;;;17.07;44.49;101604.13;5024401;28;1000;-58
2024/02/16 10:21:30;;;;;;;;;;;;;;;16.76;44.79;101596.28;5031320;28;1103;-59
2024/02/16 10:24:06;;;;;;;;;;;;;;;18.43;41.70;101594.91;5028550;28;1068;-60
2024/02/16 10:26:32;;;;;;;;;;;;;;;17.13;44.47;101605.00;5035257;28;1012;-59
2024/02/16 10:28:57;;;;;;;;;;;;;;;16.76;44.69;101593.53;5032395;28;1076;-59
2024/02/16 10:31:27;;;;;;;;;;;;;;;16.46;45.27;101593.94;5030276;28;1084;-59
2024/02/16 10:34:01;;;;;;;;;;;;;;;18.34;42.15;101590.97;5033796;28;1089;-59
2024/02/16 10:36:28;;;;;;;;;;;;;;;17.22;44.42;101596.03;5031419;28;1048;-59
2024/02/16 10:38:54;;;;;;;;;;;;;;;16.68;45.17;101593.97;5038495;28;1147;-60
2024/02/16 10:41:20;;;;;;;;;;;;;;;16.55;45.38;101605.31;5038143;28;1051;-59
2024/02/16 10:43:46;;;;;;;;;;;;;;;18.02;42.77;101591.84;5037410;28;1083;-60
2024/02/16 10:46:12;;;;;;;;;;;;;;;17.29;44.21;101598.56;5051680;28;1906;-59
2024/02/16 10:48:38;;;;;;;;;;;;;;;16.70;45.42;101599.22;5017359;28;1072;-59
2024/02/16 10:51:03;;;;;;;;;;;;;;;16.92;45.28;101588.28;5038342;28;1040;-56
2024/02/16 10:53:30;;;;;;;;;;;;;;;18.01;42.65;101592.97;5038054;28;1570;-58
2024/02/16 10:55:59;;;;;;;;;;;;;;;16.92;44.90;101591.84;5062109;28;1178;-51
2024/02/16 10:58:26;;;;;;;;;;;;;;;16.56;45.56;101596.00;5069104;28;1184;-58
2024/02/16 11:00:52;;;;;;;;;;;;;;;17.08;44.70;101579.13;5036216;28;1161;-58
2024/02/16 11:03:18;;;;;;;;;;;;;;;17.76;42.91;101578.69;5034441;28;1169;-60
2024/02/16 11:05:46;;;;;;;;;;;;;;;16.79;45.10;101594.94;5036175;28;1907;-56
2024/02/16 11:08:13;;;;;;;;;;;;;;;16.53;45.16;101599.25;5037198;28;1024;-59
2024/02/16 11:10:38;;;;;;;;;;;;;;;17.29;44.53;101584.81;5036405;28;1205;-57
2024/02/16 11:13:04;;;;;;;;;;;;;;;17.91;42.62;101597.28;5036669;28;1086;-57
2024/02/16 11:15:33;;;;;;;;;;;;;;;16.96;44.99;101589.41;5031806;28;1131;-58
2024/02/16 11:18:02;;;;;;;;;;;;;;;17.18;44.56;101594.91;5036468;28;1075;-58
2024/02/16 11:20:27;;;;;;;;;;;;;;;17.74;43.20;101597.38;5036939;28;1112;-58
2024/02/16 11:22:53;;;;;;;;;;;;;;;16.88;45.17;101600.81;5024657;28;1094;-58
2024/02/16 11:25:20;;;;;;;;;;;;;;;17.28;44.74;101602.44;5031332;28;1985;-58
2024/02/16 11:27:46;;;;;;;;;;;;;;;17.66;43.24;101595.09;5037831;28;1242;-60
2024/02/16 11:30:12;;;;;;;;;;;;;;;17.47;43.94;101596.56;5030728;28;1147;-58
2024/02/16 11:32:37;;;;;;;;;;;;;;;19.04;40.67;101591.63;5020130;28;1144;-58
2024/02/16 11:35:11;;;;;;;;;;;;;;;17.73;43.10;101592.16;5037268;28;1112;-58
2024/02/16 11:37:36;;;;;;;;;;;;;;;17.14;44.56;101592.91;5033933;28;1079;-57
2024/02/16 11:40:03;;;;;;;;;;;;;;;16.68;44.87;101591.22;5033863;28;1031;-53
2024/02/16 11:42:29;;;;;;;;;;;;;;;18.00;42.81;101589.34;5060293;28;1060;-54
2024/02/16 11:44:55;;;;;;;;;;;;;;;17.00;44.54;101582.31;5033460;28;1906;-58
2024/02/16 11:47:27;;;;;;;;;;;;;;;16.73;44.96;101577.56;5029130;28;1309;-57
2024/02/16 11:50:05;;;;;;;;;;;;;;;17.43;44.23;101569.59;5036954;28;1139;-59
2024/02/16 11:52:31;;;;;;;;;;;;;;;17.48;43.70;101584.50;5024324;28;1091;-58
2024/02/16 11:55:00;;;;;;;;;;;;;;;16.86;44.77;101586.53;5036393;28;1292;-60
2024/02/16 11:57:26;;;;;;;;;;;;;;;16.57;45.26;101578.44;5037029;28;1118;-60
2024/02/16 11:59:52;;;;;;;;;;;;;;;16.79;45.02;101574.88;5035989;28;1317;-57
2024/02/16 12:02:24;;;;;;;;;;;;;;;17.85;43.16;101586.44;5067343;28;1212;-60
2024/02/16 12:04:57;;;;;;;;;;;;;;;16.72;45.36;101575.91;5035493;28;1897;-57
2024/02/16 12:07:22;;;;;;;;;;;;;;;16.45;45.31;101581.28;5035873;28;1169;-59
2024/02/16 12:09:56;;;;;;;;;;;;;;;17.03;45.01;101579.06;5034870;28;1392;-59
2024/02/16 12:12:22;;;;;;;;;;;;;;;17.83;42.82;101583.97;5031973;28;1300;-58
2024/02/16 12:14:47;;;;;;;;;;;;;;;16.88;45.04;101584.34;5027239;28;1251;-57
2024/02/16 12:17:14;;;;;;;;;;;;;;;17.94;43.24;101590.44;5019312;28;1059;-59
2024/02/16 12:19:43;;;;;;;;;;;;;;;17.19;44.24;101579.22;5021411;28;1127;-59
2024/02/16 12:22:09;;;;;;;;;;;;;;;16.67;45.52;101583.25;5024252;28;1027;-59
2024/02/16 12:24:35;;;;;;;;;;;;;;;17.77;43.60;101579.53;5020512;28;1902;-57
2024/02/16 12:27:00;;;;;;;;;;;;;;;17.37;43.84;101581.63;5036634;28;1143;-60
2024/02/16 12:29:26;;;;;;;;;;;;;;;16.64;45.29;101570.84;5036212;28;1074;-59
2024/02/16 12:31:51;;;;;;;;;;;;;;;16.55;45.32;101572.38;5034923;28;1096;-58
2024/02/16 12:34:17;;;;;;;;;;;;;;;17.60;43.49;101579.66;5036040;28;1054;-57
2024/02/16 12:36:42;;;;;;;;;;;;;;;16.74;45.00;101578.41;5032041;28;1125;-58
2024/02/16 12:39:14;;;;;;;;;;;;;;;17.39;44.32;101576.69;5020692;28;1330;-59
2024/02/16 12:41:42;;;;;;;;;;;;;;;17.76;43.16;101578.69;5027427;28;1124;-56